createdAt,value
2018-12-22T00:30:15.778Z,1.47
2018-12-22T00:32:58.006Z,1.37
2018-12-22T00:38:56.984Z,1.50
2018-12-22T00:41:31.913Z,1.20
2018-12-22T00:44:07.686Z,1.98
2018-12-22T00:46:43.331Z,1.90
2018-12-22T00:49:18.483Z,2.67
2018-12-22T00:52:16.273Z,2.00
2018-12-22T00:58:45.286Z,2.10
2018-12-22T01:01:22.618Z,1.42
2018-12-22T01:04:04.427Z,2.20
2018-12-22T01:06:39.837Z,2.37
2018-12-22T01:09:26.562Z,1.80
2018-12-22T01:12:00.090Z,1.25
2018-12-22T01:14:41.938Z,1.50
2018-12-22T01:17:23.846Z,1.90
2018-12-22T01:19:58.983Z,2.17
2018-12-22T01:25:26.160Z,2.03
2018-12-22T01:27:57.358Z,1.40
2018-12-22T01:30:30.666Z,2.42
2018-12-22T01:33:03.712Z,1.90
2018-12-22T01:35:43.248Z,2.98
2018-12-22T01:38:31.040Z,1.70
2018-12-22T01:41:06.138Z,1.52
2018-12-22T01:46:56.861Z,1.37
2018-12-22T01:49:32.717Z,1.25
2018-12-22T01:52:08.679Z,1.40
2018-12-22T01:54:47.705Z,2.10
2018-12-22T01:57:18.326Z,1.40
2018-12-22T02:03:10.600Z,1.22
2018-12-22T02:05:42.290Z,1.60
2018-12-22T02:08:17.858Z,2.10
2018-12-22T02:10:50.497Z,2.30
2018-12-22T02:16:30.033Z,1.98
2018-12-22T02:19:03.142Z,1.27
2018-12-22T02:24:38.759Z,2.05
2018-12-22T02:27:11.401Z,2.80
2018-12-22T02:29:44.421Z,3.20
2018-12-22T02:32:19.960Z,2.40
2018-12-22T02:34:55.186Z,2.60
2018-12-22T02:37:24.721Z,2.75
2018-12-22T02:39:59.952Z,2.30
2018-12-22T02:42:48.399Z,3.50
2018-12-22T02:51:17.444Z,2.45
2018-12-22T02:53:46.814Z,2.58
2018-12-22T02:56:17.655Z,3.40
2018-12-22T02:58:52.981Z,2.70
2018-12-22T03:01:47.752Z,3.35
2018-12-22T03:04:45.014Z,2.90
2018-12-22T03:07:17.700Z,2.60
2018-12-22T03:09:53.120Z,2.20
2018-12-22T03:12:47.842Z,3.72
2018-12-22T03:15:36.860Z,2.35
2018-12-22T03:18:12.335Z,2.30
2018-12-22T03:20:44.957Z,2.33
2018-12-22T03:23:18.157Z,2.90
2018-12-22T03:25:51.303Z,2.05
2018-12-22T03:28:26.702Z,2.33
2018-12-22T03:31:20.489Z,2.47
2018-12-22T03:37:13.134Z,2.40
2018-12-22T03:40:00.323Z,2.20
2018-12-22T03:42:42.639Z,2.60
2018-12-22T03:48:20.533Z,3.12
2018-12-22T03:50:56.206Z,3.40
2018-12-22T03:53:31.853Z,3.22
2018-12-22T03:56:05.301Z,3.55
2018-12-22T03:58:38.114Z,3.65
2018-12-22T04:01:36.781Z,4.20
2018-12-22T04:04:23.046Z,3.40
2018-12-22T04:07:17.473Z,3.40
2018-12-22T04:10:07.370Z,3.92
2018-12-22T04:12:44.424Z,3.00
2018-12-22T04:15:26.456Z,3.35
2018-12-22T04:17:59.410Z,4.42
2018-12-22T04:23:27.308Z,3.90
2018-12-22T04:26:00.510Z,3.45
2018-12-22T04:28:39.988Z,3.00
2018-12-22T04:31:14.765Z,3.65
2018-12-22T04:33:47.510Z,3.45
2018-12-22T04:36:22.961Z,3.52
2018-12-22T04:39:19.001Z,3.70
2018-12-22T04:41:52.295Z,3.42
2018-12-22T04:44:53.071Z,4.50
2018-12-22T04:47:26.404Z,3.70
2018-12-22T04:49:56.878Z,3.58
2018-12-22T04:52:31.730Z,4.00
2018-12-22T04:58:33.201Z,2.90
2018-12-22T05:01:08.156Z,3.35
2018-12-22T05:03:49.694Z,3.87
2018-12-22T05:06:25.007Z,3.12
2018-12-22T05:09:14.671Z,3.55
2018-12-22T05:14:43.938Z,3.62
2018-12-22T05:17:16.592Z,2.80
2018-12-22T05:19:54.087Z,3.30
2018-12-22T05:22:26.806Z,4.50
2018-12-22T05:24:59.676Z,3.30
2018-12-22T05:27:41.694Z,3.80
2018-12-22T05:30:11.227Z,4.45
2018-12-22T05:35:50.450Z,3.42
2018-12-22T05:38:19.841Z,3.75
2018-12-22T05:40:55.113Z,3.92
2018-12-22T05:43:24.513Z,3.65
2018-12-22T05:46:03.904Z,4.10
2018-12-22T05:48:33.281Z,4.05
2018-12-22T05:51:05.192Z,3.42
2018-12-22T06:00:00.353Z,4.58
2018-12-22T06:02:48.085Z,3.40
2018-12-22T06:05:17.549Z,3.60
2018-12-22T06:07:46.958Z,3.50
2018-12-22T06:10:16.417Z,4.30
2018-12-22T06:12:51.500Z,3.60
2018-12-22T06:18:43.933Z,3.15
2018-12-22T06:21:19.580Z,3.83
2018-12-22T06:27:07.448Z,4.33
2018-12-22T06:32:52.480Z,4.72
2018-12-22T06:38:31.503Z,5.30
2018-12-22T06:41:07.172Z,4.65
2018-12-22T06:44:02.011Z,5.28
2018-12-22T06:46:39.941Z,4.83
2018-12-22T06:49:15.141Z,6.20
2018-12-22T06:51:58.659Z,5.08
2018-12-22T06:54:31.810Z,5.25
2018-12-22T06:57:07.330Z,5.17
2018-12-22T06:59:40.788Z,5.50
2018-12-22T07:02:38.120Z,4.12
2018-12-22T07:05:10.846Z,5.33
2018-12-22T07:07:43.824Z,5.00
2018-12-22T07:10:19.219Z,4.90
2018-12-22T07:14:20.718Z,5.43
2018-12-22T07:16:59.467Z,4.90
2018-12-22T07:19:51.827Z,5.03
2018-12-22T07:22:37.622Z,5.00
2018-12-22T07:25:32.181Z,5.85
2018-12-22T07:28:11.256Z,4.60
2018-12-22T07:31:07.944Z,4.70
2018-12-22T07:36:43.516Z,5.30
2018-12-22T07:39:16.401Z,4.97
2018-12-22T07:48:28.192Z,6.10
2018-12-22T08:41:23.123Z,4.50
2018-12-22T08:50:11.411Z,5.58
2018-12-22T08:52:40.826Z,4.20
2018-12-22T08:55:10.407Z,4.30
2018-12-22T08:57:46.332Z,5.17
2018-12-22T09:03:22.482Z,4.60
2018-12-22T09:05:51.954Z,4.95
2018-12-22T09:08:22.382Z,5.60
2018-12-22T09:10:51.805Z,4.90
2018-12-22T09:13:21.266Z,4.87
2018-12-22T09:15:50.818Z,5.80
2018-12-22T10:05:48.655Z,4.30
2018-12-22T10:14:57.327Z,4.63
2018-12-22T10:17:45.172Z,5.85
2018-12-22T10:20:33.885Z,4.85
2018-12-22T10:26:20.978Z,4.47
2018-12-22T10:45:00.061Z,4.72
2018-12-22T10:47:29.636Z,4.40
2018-12-22T10:49:59.066Z,5.43
2018-12-22T10:52:28.125Z,4.70
2018-12-22T10:55:16.037Z,5.90
2018-12-22T11:01:08.606Z,4.92
2018-12-22T11:06:46.551Z,4.20
2018-12-22T11:09:19.030Z,4.53
2018-12-22T11:11:48.537Z,4.60
2018-12-22T11:14:18.046Z,3.90
2018-12-22T11:16:47.607Z,4.15
2018-12-22T11:28:49.570Z,4.42
2018-12-22T11:31:19.014Z,3.83
2018-12-22T11:33:48.541Z,4.40
